Time;durP1;ratioP1;P1;durP2;ratioP2;P2;SDS_P1;SDS_P2;PMS_P1;PMS_P2;Temp;Humidity;BMP_temperature;BMP_pressure;BME280_temperature;BME280_humidity;BME280_pressure;Samples;Min_cycle;Max_cycle;Signal;HPM_P1;HPM_P2
2021/09/02 00:00:10;;;;;;;98.37;70.03;;;;;;;;;;6244475;23;20464;-50
2021/09/02 00:05:41;;;;;;;118.03;82.73;;;;;;;;;;6244061;23;20384;-48
2021/09/02 00:08:09;;;;;;;135.90;99.23;;;;;;;;;;6243412;23;20398;-55
2021/09/02 00:10:36;;;;;;;61.53;42.07;;;;;;;;;;6247509;23;20427;-54
2021/09/02 00:13:05;;;;;;;30.90;19.20;;;;;;;;;;6274166;22;20428;-52
2021/09/02 00:16:01;;;;;;;26.73;16.80;;;;;;;;;;6274076;22;20393;-55
2021/09/02 00:18:28;;;;;;;26.60;17.07;;;;;;;;;;6273822;22;20413;-50
2021/09/02 00:20:56;;;;;;;27.37;17.47;;;;;;;;;;6274099;22;20427;-52
2021/09/02 00:23:46;;;;;;;28.93;18.37;;;;;;;;;;6274530;23;20431;-55
2021/09/02 00:26:14;;;;;;;28.33;17.20;;;;;;;;;;6248708;23;20441;-48
2021/09/02 00:28:43;;;;;;;27.47;18.17;;;;;;;;;;6243412;23;20427;-54
2021/09/02 00:31:13;;;;;;;31.20;20.10;;;;;;;;;;6243697;23;20432;-52
2021/09/02 00:33:40;;;;;;;32.80;20.00;;;;;;;;;;6243187;23;20437;-52
2021/09/02 00:36:08;;;;;;;30.13;19.30;;;;;;;;;;6243613;23;20417;-50
2021/09/02 00:38:51;;;;;;;26.23;16.37;;;;;;;;;;6243963;23;20398;-54
2021/09/02 00:41:18;;;;;;;26.07;17.00;;;;;;;;;;6243739;23;20398;-51
2021/09/02 00:43:48;;;;;;;25.03;15.67;;;;;;;;;;6243179;23;20413;-55
2021/09/02 00:46:15;;;;;;;30.10;17.33;;;;;;;;;;6243838;23;20425;-51
2021/09/02 00:48:43;;;;;;;23.27;16.90;;;;;;;;;;6243444;23;20620;-50
2021/09/02 00:51:12;;;;;;;33.23;19.37;;;;;;;;;;6243413;23;20378;-51
2021/09/02 00:53:39;;;;;;;31.97;17.50;;;;;;;;;;6243082;23;20429;-51
2021/09/02 00:56:07;;;;;;;28.50;16.73;;;;;;;;;;6243375;23;20410;-48
2021/09/02 00:58:57;;;;;;;23.50;15.90;;;;;;;;;;6243609;23;20413;-53
2021/09/02 01:01:28;;;;;;;28.63;17.50;;;;;;;;;;6243393;23;20474;-52
2021/09/02 01:03:55;;;;;;;29.43;17.40;;;;;;;;;;6243515;23;20425;-55
2021/09/02 01:06:29;;;;;;;31.87;17.67;;;;;;;;;;6242875;23;20394;-50
2021/09/02 01:08:57;;;;;;;27.60;17.43;;;;;;;;;;6242958;23;20429;-51
2021/09/02 01:11:24;;;;;;;29.50;17.20;;;;;;;;;;6243397;23;20426;-50
2021/09/02 01:14:16;;;;;;;25.47;16.33;;;;;;;;;;6242801;23;20485;-51
2021/09/02 01:16:45;;;;;;;31.30;18.37;;;;;;;;;;6243219;23;20466;-53
2021/09/02 01:19:12;;;;;;;31.97;20.13;;;;;;;;;;6243184;23;20490;-48
2021/09/02 01:21:44;;;;;;;27.43;17.30;;;;;;;;;;6243206;23;20405;-55
2021/09/02 01:24:13;;;;;;;27.33;17.13;;;;;;;;;;6243213;23;20731;-52
2021/09/02 01:26:40;;;;;;;34.33;17.67;;;;;;;;;;6242602;23;20394;-55
2021/09/02 01:29:24;;;;;;;30.37;18.37;;;;;;;;;;6243464;23;20406;-56
2021/09/02 01:31:51;;;;;;;27.67;17.37;;;;;;;;;;6243342;23;20417;-55
2021/09/02 01:34:18;;;;;;;27.43;19.43;;;;;;;;;;6243017;23;20446;-51
2021/09/02 01:36:48;;;;;;;35.83;16.77;;;;;;;;;;6243127;23;20453;-51
2021/09/02 01:39:20;;;;;;;29.63;18.57;;;;;;;;;;6243344;23;20448;-49
2021/09/02 01:41:47;;;;;;;26.03;16.20;;;;;;;;;;6242824;23;20394;-54
2021/09/02 01:44:22;;;;;;;28.47;16.10;;;;;;;;;;6243241;23;20409;-49
2021/09/02 01:46:49;;;;;;;27.63;15.80;;;;;;;;;;6242415;23;20431;-50
2021/09/02 01:49:18;;;;;;;24.77;16.53;;;;;;;;;;6242885;23;20441;-52
2021/09/02 01:54:50;;;;;;;20.57;13.60;;;;;;;;;;6242409;23;20451;-47
2021/09/02 01:57:18;;;;;;;22.60;14.90;;;;;;;;;;6243123;23;20406;-53
2021/09/02 02:00:00;;;;;;;28.30;15.60;;;;;;;;;;6243104;23;20822;-52
2021/09/02 02:02:28;;;;;;;27.50;15.53;;;;;;;;;;6242448;23;20410;-48
2021/09/02 02:04:55;;;;;;;29.60;15.43;;;;;;;;;;6243183;23;20426;-53
2021/09/02 02:07:37;;;;;;;22.90;14.90;;;;;;;;;;6243382;23;20393;-58
2021/09/02 02:10:07;;;;;;;25.53;15.03;;;;;;;;;;6243068;23;20401;-47
2021/09/02 02:12:34;;;;;;;25.17;15.07;;;;;;;;;;6242732;23;20409;-52
2021/09/02 02:18:05;;;;;;;28.50;17.17;;;;;;;;;;6243087;23;20451;-55
2021/09/02 02:20:35;;;;;;;26.33;17.77;;;;;;;;;;6242921;23;20401;-52
2021/09/02 02:26:08;;;;;;;23.17;15.67;;;;;;;;;;6242752;23;20460;-50
2021/09/02 02:28:35;;;;;;;24.20;16.17;;;;;;;;;;6242756;23;20425;-50
2021/09/02 02:31:21;;;;;;;26.87;16.03;;;;;;;;;;6242739;23;20408;-53
2021/09/02 02:33:49;;;;;;;29.43;17.37;;;;;;;;;;6242763;23;20449;-52
2021/09/02 02:36:16;;;;;;;24.70;14.97;;;;;;;;;;6242946;23;20445;-49
2021/09/02 02:41:49;;;;;;;22.97;15.30;;;;;;;;;;6242439;23;20493;-54
2021/09/02 02:44:16;;;;;;;22.53;14.10;;;;;;;;;;6242494;23;20402;-46
2021/09/02 02:46:45;;;;;;;28.43;15.80;;;;;;;;;;6242974;23;20414;-49
2021/09/02 02:49:12;;;;;;;25.50;15.63;;;;;;;;;;6242464;23;20413;-55
2021/09/02 02:51:40;;;;;;;26.30;15.93;;;;;;;;;;6242502;23;20417;-50
2021/09/02 02:54:25;;;;;;;28.60;16.57;;;;;;;;;;6242063;23;20438;-53
2021/09/02 02:56:53;;;;;;;26.57;14.93;;;;;;;;;;6242613;23;20431;-54
2021/09/02 02:59:21;;;;;;;21.63;14.33;;;;;;;;;;6242623;23;20410;-57
2021/09/02 03:02:06;;;;;;;23.33;15.87;;;;;;;;;;6242802;23;20469;-51
2021/09/02 03:04:34;;;;;;;21.73;14.20;;;;;;;;;;6242370;23;20413;-51
2021/09/02 03:07:03;;;;;;;26.20;15.80;;;;;;;;;;6242452;23;20382;-53
2021/09/02 03:09:49;;;;;;;25.63;14.80;;;;;;;;;;6242375;23;20429;-52
2021/09/02 03:12:29;;;;;;;23.70;14.50;;;;;;;;;;6242756;23;20409;-52
2021/09/02 03:14:57;;;;;;;23.10;15.37;;;;;;;;;;6242437;23;20461;-53
2021/09/02 03:17:24;;;;;;;20.47;15.30;;;;;;;;;;6242288;23;20394;-50
2021/09/02 03:19:51;;;;;;;23.50;14.10;;;;;;;;;;6241905;23;20424;-51
2021/09/02 03:22:19;;;;;;;22.33;14.10;;;;;;;;;;6242294;23;20387;-53
2021/09/02 03:24:46;;;;;;;28.17;15.07;;;;;;;;;;6242051;23;20417;-53
2021/09/02 03:27:14;;;;;;;21.23;14.37;;;;;;;;;;6242239;23;20414;-49
2021/09/02 03:29:45;;;;;;;21.73;14.20;;;;;;;;;;6242130;23;20409;-54
2021/09/02 03:32:12;;;;;;;22.07;13.87;;;;;;;;;;6241753;23;20453;-53
2021/09/02 03:34:39;;;;;;;20.07;13.00;;;;;;;;;;6242076;23;20446;-51
2021/09/02 03:37:16;;;;;;;21.63;13.90;;;;;;;;;;6242274;23;20417;-53
2021/09/02 03:39:49;;;;;;;26.20;15.10;;;;;;;;;;6242134;23;20460;-54
2021/09/02 03:42:17;;;;;;;27.43;13.77;;;;;;;;;;6242460;23;20438;-59
2021/09/02 03:44:54;;;;;;;26.93;13.40;;;;;;;;;;6242141;23;20417;-52
2021/09/02 03:47:21;;;;;;;20.60;14.17;;;;;;;;;;6242269;23;20409;-49
2021/09/02 03:49:51;;;;;;;22.37;14.30;;;;;;;;;;6242132;23;20429;-53
2021/09/02 03:52:48;;;;;;;22.27;13.20;;;;;;;;;;6242259;23;20417;-54
2021/09/02 03:55:15;;;;;;;27.00;14.77;;;;;;;;;;6241522;23;20398;-51
2021/09/02 03:57:43;;;;;;;19.73;14.27;;;;;;;;;;6215650;23;20425;-52
2021/09/02 04:00:21;;;;;;;22.63;14.37;;;;;;;;;;6241779;23;20412;-53
2021/09/02 04:02:51;;;;;;;20.97;13.10;;;;;;;;;;6241703;23;20415;-48
2021/09/02 04:05:25;;;;;;;22.53;13.40;;;;;;;;;;6241278;23;20445;-55
2021/09/02 04:08:15;;;;;;;28.20;14.07;;;;;;;;;;6242278;23;20432;-56
2021/09/02 04:10:43;;;;;;;21.07;14.20;;;;;;;;;;6242020;23;20694;-51
2021/09/02 04:13:12;;;;;;;28.17;15.53;;;;;;;;;;6241704;23;20461;-57
2021/09/02 04:16:00;;;;;;;20.47;12.90;;;;;;;;;;6242094;23;20394;-56
2021/09/02 04:18:28;;;;;;;25.33;13.90;;;;;;;;;;6242517;23;20421;-53
2021/09/02 04:20:57;;;;;;;16.50;11.87;;;;;;;;;;6243338;23;20425;-53
2021/09/02 04:23:33;;;;;;;18.77;13.10;;;;;;;;;;6243458;23;20429;-54
2021/09/02 04:26:00;;;;;;;21.37;14.77;;;;;;;;;;6242513;23;20536;-53
2021/09/02 04:28:27;;;;;;;18.17;11.97;;;;;;;;;;6243389;23;20481;-55
2021/09/02 04:33:56;;;;;;;23.10;15.07;;;;;;;;;;6240980;23;20441;-55
2021/09/02 04:36:51;;;;;;;20.70;13.40;;;;;;;;;;6243496;23;20478;-51
2021/09/02 04:39:18;;;;;;;16.47;12.63;;;;;;;;;;6242800;23;20409;-57
2021/09/02 04:41:48;;;;;;;25.53;13.30;;;;;;;;;;6243193;23;20422;-55
2021/09/02 04:44:25;;;;;;;25.63;15.00;;;;;;;;;;6243234;23;20406;-59
2021/09/02 04:46:54;;;;;;;21.50;12.27;;;;;;;;;;6243011;23;20393;-55
2021/09/02 04:49:21;;;;;;;19.90;12.40;;;;;;;;;;6243125;23;20401;-52
2021/09/02 04:51:56;;;;;;;18.90;12.40;;;;;;;;;;6242473;23;20413;-57
2021/09/02 04:54:23;;;;;;;20.63;11.67;;;;;;;;;;6241977;23;20444;-55
2021/09/02 04:56:51;;;;;;;17.63;12.70;;;;;;;;;;6242484;23;20421;-50
2021/09/02 04:59:18;;;;;;;20.23;13.17;;;;;;;;;;6242555;23;20414;-53
2021/09/02 05:01:46;;;;;;;22.10;13.47;;;;;;;;;;6243078;23;20394;-54
2021/09/02 05:04:16;;;;;;;18.00;11.90;;;;;;;;;;6242864;23;20393;-51
2021/09/02 05:06:44;;;;;;;19.10;14.00;;;;;;;;;;6242315;23;20408;-56
2021/09/02 05:09:22;;;;;;;19.87;13.70;;;;;;;;;;6242252;23;20426;-55
2021/09/02 05:11:54;;;;;;;22.27;13.70;;;;;;;;;;6242994;23;20440;-53
2021/09/02 05:14:22;;;;;;;18.70;11.60;;;;;;;;;;6242113;23;20441;-53
2021/09/02 05:16:50;;;;;;;19.87;12.67;;;;;;;;;;6242658;23;20494;-55
2021/09/02 05:19:37;;;;;;;19.30;11.63;;;;;;;;;;6241549;23;20406;-54
2021/09/02 05:22:05;;;;;;;15.07;12.13;;;;;;;;;;6242192;23;20441;-49
2021/09/02 05:24:58;;;;;;;24.30;13.50;;;;;;;;;;6242311;23;20413;-54
2021/09/02 05:27:32;;;;;;;20.97;12.07;;;;;;;;;;6241856;23;20440;-55
2021/09/02 05:30:00;;;;;;;16.07;11.63;;;;;;;;;;6241623;23;20445;-54
2021/09/02 05:32:36;;;;;;;17.70;11.90;;;;;;;;;;6242561;23;20409;-57
2021/09/02 05:35:29;;;;;;;20.53;12.83;;;;;;;;;;6241482;23;20449;-57
2021/09/02 05:40:52;;;;;;;17.07;12.20;;;;;;;;;;6241849;23;20404;-51
2021/09/02 05:43:20;;;;;;;20.50;12.73;;;;;;;;;;6241305;23;20378;-52
2021/09/02 05:46:06;;;;;;;17.90;11.47;;;;;;;;;;6242626;23;20390;-54
2021/09/02 05:48:33;;;;;;;16.17;11.80;;;;;;;;;;6241147;23;20428;-49
2021/09/02 05:51:02;;;;;;;17.80;11.93;;;;;;;;;;6240725;23;20440;-55
2021/09/02 05:53:32;;;;;;;20.33;12.53;;;;;;;;;;6241097;23;20481;-57
2021/09/02 05:58:47;;;;;;;18.97;12.20;;;;;;;;;;6242041;23;20450;-54
2021/09/02 06:01:16;;;;;;;18.87;12.83;;;;;;;;;;6241455;23;20427;-53
2021/09/02 06:03:46;;;;;;;25.20;13.53;;;;;;;;;;6241164;23;20397;-51
2021/09/02 06:06:32;;;;;;;23.93;14.80;;;;;;;;;;6241933;23;20386;-55
2021/09/02 06:09:16;;;;;;;22.27;13.23;;;;;;;;;;6241413;23;20461;-51
2021/09/02 06:11:54;;;;;;;20.70;12.70;;;;;;;;;;6241489;23;20390;-56
2021/09/02 06:14:22;;;;;;;22.43;14.37;;;;;;;;;;6241321;23;20457;-52
2021/09/02 06:16:49;;;;;;;28.10;13.07;;;;;;;;;;6240852;23;20438;-55
2021/09/02 06:19:29;;;;;;;22.40;13.33;;;;;;;;;;6240755;23;20441;-54
2021/09/02 06:21:57;;;;;;;28.40;15.33;;;;;;;;;;6240282;23;20483;-56
2021/09/02 06:24:28;;;;;;;18.13;11.77;;;;;;;;;;6240342;23;20422;-46
2021/09/02 06:27:09;;;;;;;20.80;13.00;;;;;;;;;;6241043;23;20461;-50
2021/09/02 06:29:38;;;;;;;29.73;12.83;;;;;;;;;;6239914;23;20499;-55
2021/09/02 06:32:12;;;;;;;23.53;15.70;;;;;;;;;;6240577;23;20418;-53
2021/09/02 06:34:51;;;;;;;22.93;12.53;;;;;;;;;;6240516;23;20449;-55
2021/09/02 06:37:20;;;;;;;17.87;12.20;;;;;;;;;;6240552;23;20390;-53
2021/09/02 06:40:06;;;;;;;22.50;11.93;;;;;;;;;;6240862;23;20382;-54
2021/09/02 06:42:33;;;;;;;19.43;12.80;;;;;;;;;;6239720;23;20497;-55
2021/09/02 06:45:01;;;;;;;19.77;12.00;;;;;;;;;;6240786;23;20429;-57
2021/09/02 06:47:33;;;;;;;15.60;10.87;;;;;;;;;;6239156;23;20418;-51
2021/09/02 06:50:08;;;;;;;20.50;11.60;;;;;;;;;;6240234;23;20461;-58
2021/09/02 06:52:38;;;;;;;20.50;13.80;;;;;;;;;;6240661;23;20406;-57
2021/09/02 06:55:14;;;;;;;19.13;12.43;;;;;;;;;;6240426;23;20446;-54
2021/09/02 06:57:42;;;;;;;17.07;12.80;;;;;;;;;;6240165;23;20405;-57
2021/09/02 07:00:10;;;;;;;24.30;13.83;;;;;;;;;;6240122;23;20387;-56
2021/09/02 07:02:53;;;;;;;22.37;12.20;;;;;;;;;;6239968;23;20448;-52
2021/09/02 07:05:22;;;;;;;35.10;15.60;;;;;;;;;;6239972;23;20418;-55
2021/09/02 07:07:54;;;;;;;22.73;13.33;;;;;;;;;;6240069;23;20402;-57
2021/09/02 07:10:29;;;;;;;23.77;15.37;;;;;;;;;;6240517;23;20441;-57
2021/09/02 07:12:56;;;;;;;23.77;15.60;;;;;;;;;;6240519;23;20436;-52
2021/09/02 07:15:24;;;;;;;18.50;14.80;;;;;;;;;;6239667;23;20437;-55
2021/09/02 07:18:02;;;;;;;24.97;14.90;;;;;;;;;;6240402;23;20407;-55
2021/09/02 07:20:35;;;;;;;27.00;15.80;;;;;;;;;;6240250;23;20414;-55
2021/09/02 07:23:02;;;;;;;20.50;14.47;;;;;;;;;;6240682;23;20374;-53
2021/09/02 07:28:36;;;;;;;19.60;13.90;;;;;;;;;;6239628;23;20416;-51
2021/09/02 07:31:24;;;;;;;21.90;13.20;;;;;;;;;;6241432;23;20414;-55
2021/09/02 07:36:40;;;;;;;22.13;14.80;;;;;;;;;;6258298;22;20428;-53
2021/09/02 07:39:08;;;;;;;23.77;15.57;;;;;;;;;;6271281;22;20423;-58
2021/09/02 07:41:36;;;;;;;27.23;16.80;;;;;;;;;;6271536;23;20397;-54
2021/09/02 07:44:05;;;;;;;23.37;17.20;;;;;;;;;;6270560;22;20472;-52
2021/09/02 07:49:36;;;;;;;29.67;20.70;;;;;;;;;;6270541;22;20449;-54
2021/09/02 07:52:06;;;;;;;26.20;18.37;;;;;;;;;;6270418;23;20476;-55
2021/09/02 07:54:53;;;;;;;27.83;18.43;;;;;;;;;;6272906;23;20464;-52
2021/09/02 07:57:47;;;;;;;27.20;18.10;;;;;;;;;;6272915;22;20413;-52
2021/09/02 08:00:18;;;;;;;30.90;19.23;;;;;;;;;;6273634;23;20491;-55
2021/09/02 08:02:47;;;;;;;25.53;18.40;;;;;;;;;;6273205;23;20424;-53
2021/09/02 08:05:15;;;;;;;21.50;16.40;;;;;;;;;;6272704;23;20432;-54
2021/09/02 08:08:19;;;;;;;29.57;19.70;;;;;;;;;;6271991;23;20404;-53
2021/09/02 08:10:47;;;;;;;24.27;15.80;;;;;;;;;;6272701;23;20419;-57
2021/09/02 08:13:15;;;;;;;23.07;17.50;;;;;;;;;;6272695;22;20408;-47
2021/09/02 08:15:47;;;;;;;27.80;18.10;;;;;;;;;;6271687;23;20458;-51
2021/09/02 08:18:17;;;;;;;34.70;19.20;;;;;;;;;;6271996;23;20421;-54
2021/09/02 08:20:45;;;;;;;28.10;19.10;;;;;;;;;;6272035;23;20415;-51
2021/09/02 08:23:12;;;;;;;25.87;16.30;;;;;;;;;;6271672;22;20493;-55
2021/09/02 08:25:40;;;;;;;23.20;17.93;;;;;;;;;;6272203;22;20397;-55
2021/09/02 08:28:44;;;;;;;27.13;18.40;;;;;;;;;;6270752;23;20431;-52
2021/09/02 08:31:12;;;;;;;25.80;16.40;;;;;;;;;;6271275;23;20440;-55
2021/09/02 08:33:50;;;;;;;28.87;18.80;;;;;;;;;;6272064;23;20409;-54
2021/09/02 08:36:39;;;;;;;27.50;18.50;;;;;;;;;;6272533;22;20440;-54
2021/09/02 08:39:10;;;;;;;20.43;15.27;;;;;;;;;;6272133;23;20469;-55
2021/09/02 08:41:38;;;;;;;27.40;18.93;;;;;;;;;;6272294;22;20472;-58
2021/09/02 08:44:09;;;;;;;27.77;19.83;;;;;;;;;;6271958;23;20382;-48
2021/09/02 08:46:49;;;;;;;27.30;20.30;;;;;;;;;;6272638;23;20409;-53
2021/09/02 08:49:20;;;;;;;27.23;19.30;;;;;;;;;;6272344;22;20454;-50
2021/09/02 08:51:52;;;;;;;28.93;21.13;;;;;;;;;;6272274;23;20404;-53
2021/09/02 08:54:41;;;;;;;25.40;19.60;;;;;;;;;;6271805;23;20400;-53
2021/09/02 08:57:18;;;;;;;28.20;16.80;;;;;;;;;;6264390;22;20439;-52
2021/09/02 09:02:59;;;;;;;27.00;17.47;;;;;;;;;;6269256;22;20428;-48
2021/09/02 09:05:37;;;;;;;24.33;16.17;;;;;;;;;;6272674;23;20400;-52
2021/09/02 09:08:09;;;;;;;20.10;15.63;;;;;;;;;;6272143;23;20429;-54
2021/09/02 09:10:36;;;;;;;25.70;17.33;;;;;;;;;;6271142;22;20421;-54
2021/09/02 09:13:22;;;;;;;28.53;16.40;;;;;;;;;;6271897;23;20385;-52
2021/09/02 09:16:05;;;;;;;23.43;15.87;;;;;;;;;;6272213;22;20452;-57
2021/09/02 09:18:52;;;;;;;19.43;15.03;;;;;;;;;;6271615;23;20421;-57
2021/09/02 09:21:20;;;;;;;20.33;14.00;;;;;;;;;;6271515;23;20436;-54
2021/09/02 09:23:54;;;;;;;24.10;15.30;;;;;;;;;;6271491;22;20401;-54
2021/09/02 09:26:22;;;;;;;26.40;17.13;;;;;;;;;;6272327;22;20448;-54
2021/09/02 09:28:52;;;;;;;23.63;16.50;;;;;;;;;;6271985;22;20411;-52
2021/09/02 09:31:31;;;;;;;24.40;15.60;;;;;;;;;;6271794;22;20420;-54
2021/09/02 09:34:04;;;;;;;20.93;15.67;;;;;;;;;;6272064;22;20389;-52
2021/09/02 09:39:40;;;;;;;23.73;13.83;;;;;;;;;;6275692;22;20809;-53
2021/09/02 09:42:07;;;;;;;21.70;13.53;;;;;;;;;;6302332;22;20443;-51
2021/09/02 09:47:40;;;;;;;19.00;12.70;;;;;;;;;;6302907;22;20383;-50
2021/09/02 09:50:11;;;;;;;26.47;11.97;;;;;;;;;;6302438;22;20420;-53
2021/09/02 09:52:54;;;;;;;19.40;14.37;;;;;;;;;;6301931;22;20487;-51
2021/09/02 09:55:22;;;;;;;22.83;12.40;;;;;;;;;;6301737;22;20447;-48
2021/09/02 09:57:49;;;;;;;15.00;10.43;;;;;;;;;;6301704;22;20408;-50
2021/09/02 10:00:21;;;;;;;15.63;11.77;;;;;;;;;;6302029;22;20384;-51
2021/09/02 10:02:49;;;;;;;16.23;10.80;;;;;;;;;;6302860;22;20380;-48
2021/09/02 10:05:19;;;;;;;14.40;10.90;;;;;;;;;;6302474;22;20486;-56
2021/09/02 10:07:53;;;;;;;17.00;11.97;;;;;;;;;;6302353;22;20419;-54
2021/09/02 10:10:21;;;;;;;13.87;9.80;;;;;;;;;;6302129;22;20478;-52
2021/09/02 10:12:51;;;;;;;18.30;10.73;;;;;;;;;;6302712;22;20408;-53
2021/09/02 10:15:22;;;;;;;17.20;11.30;;;;;;;;;;6302075;22;20423;-57
2021/09/02 10:17:57;;;;;;;10.30;8.30;;;;;;;;;;6301751;22;20424;-53
2021/09/02 10:20:53;;;;;;;15.63;10.40;;;;;;;;;;6302293;22;20476;-56
2021/09/02 10:23:33;;;;;;;15.67;10.13;;;;;;;;;;6303034;22;20407;-51
2021/09/02 10:29:13;;;;;;;14.17;10.03;;;;;;;;;;6302392;22;20511;-49
2021/09/02 10:31:41;;;;;;;11.20;8.00;;;;;;;;;;6302703;22;20445;-55
2021/09/02 10:40:04;;;;;;;11.30;8.27;;;;;;;;;;6300067;22;20526;-56
2021/09/02 10:42:59;;;;;;;11.87;8.40;;;;;;;;;;6302334;22;20410;-52
2021/09/02 10:45:35;;;;;;;13.60;8.30;;;;;;;;;;6302572;22;20484;-61
2021/09/02 10:48:13;;;;;;;13.70;8.77;;;;;;;;;;6302448;22;20430;-52
2021/09/02 10:50:46;;;;;;;11.77;8.50;;;;;;;;;;6300557;22;20388;-51
2021/09/02 10:53:48;;;;;;;12.07;7.57;;;;;;;;;;6302178;22;20404;-52
2021/09/02 10:56:17;;;;;;;10.50;6.80;;;;;;;;;;6301632;22;20432;-49
2021/09/02 10:58:49;;;;;;;8.53;6.97;;;;;;;;;;6301416;22;20416;-53
2021/09/02 11:04:36;;;;;;;11.30;7.03;;;;;;;;;;6301437;22;20458;-48
2021/09/02 11:07:06;;;;;;;11.43;7.67;;;;;;;;;;6301815;22;20403;-54
2021/09/02 11:12:40;;;;;;;13.63;7.90;;;;;;;;;;6301664;22;20431;-58
2021/09/02 11:15:09;;;;;;;14.00;7.80;;;;;;;;;;6302187;22;20403;-54
2021/09/02 11:17:59;;;;;;;11.47;7.83;;;;;;;;;;6302903;22;20431;-56
2021/09/02 11:20:35;;;;;;;11.20;6.63;;;;;;;;;;6302098;22;20448;-49
2021/09/02 11:23:13;;;;;;;8.90;6.83;;;;;;;;;;6302075;22;20426;-53
2021/09/02 11:25:45;;;;;;;14.33;8.20;;;;;;;;;;6301542;22;20475;-55
2021/09/02 11:28:22;;;;;;;12.93;7.67;;;;;;;;;;6301859;22;20509;-49
2021/09/02 11:30:53;;;;;;;11.10;6.73;;;;;;;;;;6302454;22;20399;-58
2021/09/02 11:33:21;;;;;;;9.23;7.57;;;;;;;;;;6303495;22;20431;-56
2021/09/02 11:36:01;;;;;;;9.60;6.70;;;;;;;;;;6303150;22;20458;-55
2021/09/02 11:38:29;;;;;;;10.37;7.03;;;;;;;;;;6303603;22;20380;-53
2021/09/02 11:41:07;;;;;;;12.83;6.47;;;;;;;;;;6304710;22;20433;-51
2021/09/02 11:46:40;;;;;;;10.20;6.30;;;;;;;;;;6303977;22;20450;-55
2021/09/02 11:49:09;;;;;;;11.50;6.70;;;;;;;;;;6303620;22;20396;-54
2021/09/02 11:52:07;;;;;;;12.63;6.60;;;;;;;;;;6302899;22;20404;-55
2021/09/02 11:54:37;;;;;;;7.60;6.20;;;;;;;;;;6302961;22;20447;-53
2021/09/02 11:57:27;;;;;;;9.50;6.80;;;;;;;;;;6304181;22;20420;-55
2021/09/02 12:00:29;;;;;;;8.67;6.10;;;;;;;;;;6303102;22;20436;-55
2021/09/02 12:03:01;;;;;;;8.30;6.13;;;;;;;;;;6303331;22;20399;-50
2021/09/02 12:05:38;;;;;;;6.50;5.80;;;;;;;;;;6303667;22;20482;-53
2021/09/02 12:08:07;;;;;;;10.63;8.90;;;;;;;;;;6302336;22;20404;-52
2021/09/02 12:10:35;;;;;;;9.50;6.93;;;;;;;;;;6303078;22;20430;-48
2021/09/02 12:13:27;;;;;;;9.97;5.90;;;;;;;;;;6303511;22;20487;-54
2021/09/02 12:16:10;;;;;;;11.70;6.57;;;;;;;;;;6274029;22;20458;-49
2021/09/02 12:18:39;;;;;;;15.90;13.03;;;;;;;;;;6303110;22;20483;-56
2021/09/02 12:21:31;;;;;;;12.10;8.27;;;;;;;;;;6303479;22;20392;-53
2021/09/02 12:24:08;;;;;;;9.70;6.50;;;;;;;;;;6303532;22;20410;-56
2021/09/02 12:29:52;;;;;;;10.70;6.10;;;;;;;;;;6303513;22;20422;-53
2021/09/02 12:32:20;;;;;;;10.13;6.00;;;;;;;;;;6302831;22;20396;-52
2021/09/02 12:35:18;;;;;;;8.80;6.03;;;;;;;;;;6303644;22;20376;-54
2021/09/02 12:37:48;;;;;;;12.20;6.70;;;;;;;;;;6303237;22;20476;-50
2021/09/02 12:40:19;;;;;;;10.37;5.40;;;;;;;;;;6302137;22;20419;-55
2021/09/02 12:45:38;;;;;;;8.20;5.20;;;;;;;;;;6270913;22;20469;-54
2021/09/02 12:48:06;;;;;;;5.60;4.90;;;;;;;;;;6271859;22;20428;-55
2021/09/02 12:51:15;;;;;;;8.90;5.17;;;;;;;;;;6272339;22;20408;-52
2021/09/02 12:53:58;;;;;;;12.10;6.00;;;;;;;;;;6272089;23;20421;-52
2021/09/02 12:56:51;;;;;;;6.80;5.10;;;;;;;;;;6271900;22;20432;-57
2021/09/02 12:59:24;;;;;;;5.43;4.27;;;;;;;;;;6270937;22;20405;-56
2021/09/02 13:04:35;;;;;;;7.30;5.00;;;;;;;;;;6242351;23;20440;-58
2021/09/02 13:07:04;;;;;;;6.60;5.10;;;;;;;;;;6269637;23;20404;-55
2021/09/02 13:09:51;;;;;;;7.33;5.63;;;;;;;;;;6270968;22;20520;-56
2021/09/02 13:12:28;;;;;;;7.90;4.83;;;;;;;;;;6271474;23;20421;-54
2021/09/02 13:15:02;;;;;;;6.97;5.40;;;;;;;;;;6272130;22;20420;-56
2021/09/02 13:17:31;;;;;;;9.13;5.03;;;;;;;;;;6271221;22;20444;-57
2021/09/02 13:19:58;;;;;;;7.73;5.27;;;;;;;;;;6271374;23;20435;-51
2021/09/02 13:22:26;;;;;;;6.90;5.20;;;;;;;;;;6269596;23;20397;-57
2021/09/02 13:24:59;;;;;;;8.70;5.80;;;;;;;;;;6271582;23;20420;-54
2021/09/02 13:27:29;;;;;;;8.03;5.30;;;;;;;;;;6268645;23;20475;-53
2021/09/02 13:29:56;;;;;;;10.97;6.07;;;;;;;;;;6271642;22;20608;-54
2021/09/02 13:32:35;;;;;;;9.90;5.97;;;;;;;;;;6269846;23;20405;-56
2021/09/02 13:35:03;;;;;;;6.87;5.00;;;;;;;;;;6269783;23;20524;-49
2021/09/02 13:40:34;;;;;;;10.07;4.67;;;;;;;;;;6255463;23;20415;-48
2021/09/02 13:43:05;;;;;;;8.37;5.17;;;;;;;;;;6268106;23;20413;-52
2021/09/02 13:45:48;;;;;;;6.47;5.40;;;;;;;;;;6269886;23;20413;-50
2021/09/02 13:48:15;;;;;;;7.50;4.90;;;;;;;;;;6270958;23;20427;-47
2021/09/02 13:50:46;;;;;;;10.73;5.57;;;;;;;;;;6270392;22;20408;-55
2021/09/02 13:53:29;;;;;;;6.90;4.53;;;;;;;;;;6271422;23;20421;-55
2021/09/02 13:59:05;;;;;;;7.90;5.40;;;;;;;;;;6272038;23;20422;-51
2021/09/02 14:01:35;;;;;;;9.97;5.53;;;;;;;;;;6271589;23;20431;-55
2021/09/02 14:04:03;;;;;;;10.37;5.73;;;;;;;;;;6272379;23;20409;-52
2021/09/02 14:06:30;;;;;;;6.73;4.93;;;;;;;;;;6271689;23;20395;-55
2021/09/02 14:09:23;;;;;;;7.80;4.97;;;;;;;;;;6272033;23;20428;-49
2021/09/02 14:11:52;;;;;;;7.70;5.57;;;;;;;;;;6271985;22;20385;-53
2021/09/02 14:14:23;;;;;;;6.47;4.67;;;;;;;;;;6271812;23;20475;-55
2021/09/02 14:16:55;;;;;;;10.97;5.63;;;;;;;;;;6271596;22;20447;-51
2021/09/02 14:19:40;;;;;;;7.97;5.80;;;;;;;;;;6271369;22;20432;-57
2021/09/02 14:22:12;;;;;;;10.30;5.50;;;;;;;;;;6271853;23;20492;-50
2021/09/02 14:24:40;;;;;;;7.03;4.67;;;;;;;;;;6259668;23;20421;-52
2021/09/02 14:27:36;;;;;;;9.03;5.53;;;;;;;;;;6272196;23;20411;-50
2021/09/02 14:30:11;;;;;;;9.03;5.57;;;;;;;;;;6272217;22;20408;-55
2021/09/02 14:35:33;;;;;;;10.30;6.50;;;;;;;;;;6242984;23;20477;-53
2021/09/02 14:38:01;;;;;;;7.90;5.60;;;;;;;;;;6271750;22;20434;-53
2021/09/02 14:40:37;;;;;;;9.40;4.30;;;;;;;;;;6271606;23;20488;-61
2021/09/02 14:43:13;;;;;;;17.03;9.03;;;;;;;;;;6271662;22;20405;-56
2021/09/02 14:45:44;;;;;;;9.50;6.60;;;;;;;;;;6272449;22;20405;-55
2021/09/02 14:48:12;;;;;;;9.07;5.23;;;;;;;;;;6270448;22;20463;-54
2021/09/02 14:51:16;;;;;;;7.63;5.30;;;;;;;;;;6258725;23;20417;-52
2021/09/02 14:53:50;;;;;;;7.10;4.80;;;;;;;;;;6270469;23;20441;-55
2021/09/02 14:56:26;;;;;;;7.70;4.87;;;;;;;;;;6271771;22;20448;-55
2021/09/02 14:59:13;;;;;;;8.83;6.37;;;;;;;;;;6271164;22;20431;-54
2021/09/02 15:07:38;;;;;;;6.70;4.80;;;;;;;;;;6270644;23;20419;-52
2021/09/02 15:10:15;;;;;;;6.47;5.07;;;;;;;;;;6270526;22;20396;-54
2021/09/02 15:12:44;;;;;;;6.70;5.27;;;;;;;;;;6270235;23;20500;-56
2021/09/02 15:15:12;;;;;;;6.90;5.03;;;;;;;;;;6270446;22;20477;-53
2021/09/02 15:17:58;;;;;;;9.73;4.70;;;;;;;;;;6270789;23;20419;-53
2021/09/02 15:20:26;;;;;;;8.17;5.53;;;;;;;;;;6271162;22;20401;-53
2021/09/02 15:22:53;;;;;;;7.40;4.60;;;;;;;;;;6270177;23;20405;-52
2021/09/02 15:25:30;;;;;;;5.80;4.27;;;;;;;;;;6269844;23;20664;-52
2021/09/02 15:28:00;;;;;;;6.33;5.30;;;;;;;;;;6270166;23;20412;-51
2021/09/02 15:30:30;;;;;;;5.53;4.23;;;;;;;;;;6270063;23;20401;-50
2021/09/02 15:36:02;;;;;;;9.33;6.50;;;;;;;;;;6269941;23;20399;-57
2021/09/02 15:38:30;;;;;;;10.57;5.03;;;;;;;;;;6270156;23;20431;-52
2021/09/02 15:41:01;;;;;;;8.13;5.33;;;;;;;;;;6271268;23;20461;-54
2021/09/02 15:43:31;;;;;;;6.63;4.50;;;;;;;;;;6271492;23;20393;-56
2021/09/02 15:45:59;;;;;;;6.73;4.40;;;;;;;;;;6271335;22;20420;-54
2021/09/02 15:48:27;;;;;;;5.77;4.10;;;;;;;;;;6271491;22;20443;-52
2021/09/02 15:51:05;;;;;;;5.43;4.33;;;;;;;;;;6271017;22;20404;-54
2021/09/02 15:53:35;;;;;;;7.43;6.00;;;;;;;;;;6270707;22;20424;-56
2021/09/02 15:56:03;;;;;;;5.80;4.37;;;;;;;;;;6271906;22;20437;-53
2021/09/02 15:58:51;;;;;;;7.97;5.20;;;;;;;;;;6271942;22;20477;-49
2021/09/02 16:01:20;;;;;;;11.53;5.00;;;;;;;;;;6270838;22;20452;-55
2021/09/02 16:03:50;;;;;;;6.80;3.97;;;;;;;;;;6271666;22;20408;-52
2021/09/02 16:06:18;;;;;;;7.70;6.03;;;;;;;;;;6271118;23;20377;-53
2021/09/02 16:08:49;;;;;;;7.90;5.57;;;;;;;;;;6271868;22;20424;-55
2021/09/02 16:11:25;;;;;;;6.77;4.50;;;;;;;;;;6270269;22;20435;-50
2021/09/02 16:13:59;;;;;;;7.43;4.37;;;;;;;;;;6272452;22;20558;-50
2021/09/02 16:16:32;;;;;;;6.00;4.60;;;;;;;;;;6247401;23;20422;-52
2021/09/02 16:19:35;;;;;;;7.90;5.27;;;;;;;;;;6273904;22;20503;-61
2021/09/02 16:22:07;;;;;;;8.30;4.70;;;;;;;;;;6272946;22;20443;-54
2021/09/02 16:24:37;;;;;;;6.13;4.37;;;;;;;;;;6273552;22;20421;-56
2021/09/02 16:27:07;;;;;;;8.17;5.20;;;;;;;;;;6273356;23;20416;-51